sensor_id;sensor_type;location;lat;lon;timestamp;temperature;humidity
68011;DHT22;54794;48.348;7.878;2023-09-07T00:02:13;25.20;47.70
68011;DHT22;54794;48.348;7.878;2023-09-07T00:04:40;25.20;47.20
68011;DHT22;54794;48.348;7.878;2023-09-07T00:07:07;25.20;47.10
68011;DHT22;54794;48.348;7.878;2023-09-07T00:09:34;25.20;47.10
68011;DHT22;54794;48.348;7.878;2023-09-07T00:12:01;25.20;47.20
68011;DHT22;54794;48.348;7.878;2023-09-07T00:14:28;25.20;47.10
68011;DHT22;54794;48.348;7.878;2023-09-07T00:16:55;25.20;47.10
68011;DHT22;54794;48.348;7.878;2023-09-07T00:19:21;25.20;47.10
68011;DHT22;54794;48.348;7.878;2023-09-07T00:21:48;25.20;47.10
68011;DHT22;54794;48.348;7.878;2023-09-07T00:24:18;25.20;47.20
68011;DHT22;54794;48.348;7.878;2023-09-07T00:26:45;25.20;47.20
68011;DHT22;54794;48.348;7.878;2023-09-07T00:29:12;25.20;47.10
68011;DHT22;54794;48.348;7.878;2023-09-07T00:31:39;25.10;47.10
68011;DHT22;54794;48.348;7.878;2023-09-07T00:34:08;25.20;47.20
68011;DHT22;54794;48.348;7.878;2023-09-07T00:36:35;25.10;47.10
68011;DHT22;54794;48.348;7.878;2023-09-07T00:39:03;25.10;47.70
68011;DHT22;54794;48.348;7.878;2023-09-07T00:41:30;25.10;47.20
68011;DHT22;54794;48.348;7.878;2023-09-07T00:43:57;25.10;47.20
68011;DHT22;54794;48.348;7.878;2023-09-07T00:46:24;25.10;47.20
68011;DHT22;54794;48.348;7.878;2023-09-07T00:48:51;25.10;47.20
68011;DHT22;54794;48.348;7.878;2023-09-07T00:51:18;25.00;47.10
68011;DHT22;54794;48.348;7.878;2023-09-07T00:53:45;25.00;47.10
68011;DHT22;54794;48.348;7.878;2023-09-07T00:56:13;25.00;47.10
68011;DHT22;54794;48.348;7.878;2023-09-07T00:58:41;25.00;47.10
68011;DHT22;54794;48.348;7.878;2023-09-07T01:01:08;25.00;47.10
68011;DHT22;54794;48.348;7.878;2023-09-07T01:03:35;25.00;47.10
68011;DHT22;54794;48.348;7.878;2023-09-07T01:06:29;24.90;47.10
68011;DHT22;54794;48.348;7.878;2023-09-07T01:09:21;24.90;47.20
68011;DHT22;54794;48.348;7.878;2023-09-07T01:11:50;24.90;47.20
68011;DHT22;54794;48.348;7.878;2023-09-07T01:14:19;24.80;47.10
68011;DHT22;54794;48.348;7.878;2023-09-07T01:16:47;24.80;47.20
68011;DHT22;54794;48.348;7.878;2023-09-07T01:19:15;24.80;47.30
68011;DHT22;54794;48.348;7.878;2023-09-07T01:21:43;24.70;47.80
68011;DHT22;54794;48.348;7.878;2023-09-07T01:24:10;24.60;47.40
68011;DHT22;54794;48.348;7.878;2023-09-07T01:26:38;24.60;47.30
68011;DHT22;54794;48.348;7.878;2023-09-07T01:29:06;24.50;47.30
68011;DHT22;54794;48.348;7.878;2023-09-07T01:31:38;24.40;47.40
68011;DHT22;54794;48.348;7.878;2023-09-07T01:34:06;24.40;47.70
68011;DHT22;54794;48.348;7.878;2023-09-07T01:36:33;24.30;47.70
68011;DHT22;54794;48.348;7.878;2023-09-07T01:39:00;24.30;47.80
68011;DHT22;54794;48.348;7.878;2023-09-07T01:41:28;24.20;48.00
68011;DHT22;54794;48.348;7.878;2023-09-07T01:43:55;24.20;48.20
68011;DHT22;54794;48.348;7.878;2023-09-07T01:46:23;24.10;48.20
68011;DHT22;54794;48.348;7.878;2023-09-07T01:48:50;24.00;48.30
68011;DHT22;54794;48.348;7.878;2023-09-07T01:51:17;24.00;48.10
68011;DHT22;54794;48.348;7.878;2023-09-07T01:53:47;24.00;48.40
68011;DHT22;54794;48.348;7.878;2023-09-07T01:56:16;23.90;48.70
68011;DHT22;54794;48.348;7.878;2023-09-07T01:58:44;23.80;48.70
68011;DHT22;54794;48.348;7.878;2023-09-07T02:01:28;23.80;49.30
68011;DHT22;54794;48.348;7.878;2023-09-07T02:04:20;23.70;49.30
68011;DHT22;54794;48.348;7.878;2023-09-07T02:07:44;23.70;49.10
68011;DHT22;54794;48.348;7.878;2023-09-07T02:11:25;23.70;49.30
68011;DHT22;54794;48.348;7.878;2023-09-07T02:13:52;23.60;49.00
68011;DHT22;54794;48.348;7.878;2023-09-07T02:16:19;23.60;49.10
68011;DHT22;54794;48.348;7.878;2023-09-07T02:18:50;23.50;49.20
68011;DHT22;54794;48.348;7.878;2023-09-07T02:21:17;23.50;49.30
68011;DHT22;54794;48.348;7.878;2023-09-07T02:23:44;23.50;49.40
68011;DHT22;54794;48.348;7.878;2023-09-07T02:26:11;23.40;49.30
68011;DHT22;54794;48.348;7.878;2023-09-07T02:28:38;23.40;49.40
68011;DHT22;54794;48.348;7.878;2023-09-07T02:31:05;23.30;49.30
68011;DHT22;54794;48.348;7.878;2023-09-07T02:33:33;23.30;49.50
68011;DHT22;54794;48.348;7.878;2023-09-07T02:36:02;23.30;49.60
68011;DHT22;54794;48.348;7.878;2023-09-07T02:38:29;23.20;49.50
68011;DHT22;54794;48.348;7.878;2023-09-07T02:40:57;23.20;49.30
68011;DHT22;54794;48.348;7.878;2023-09-07T02:43:24;23.10;49.40
68011;DHT22;54794;48.348;7.878;2023-09-07T02:45:51;23.10;49.50
68011;DHT22;54794;48.348;7.878;2023-09-07T02:48:18;23.00;49.60
68011;DHT22;54794;48.348;7.878;2023-09-07T02:50:47;23.00;49.70
68011;DHT22;54794;48.348;7.878;2023-09-07T02:53:51;22.90;49.80
68011;DHT22;54794;48.348;7.878;2023-09-07T02:56:18;22.90;49.90
68011;DHT22;54794;48.348;7.878;2023-09-07T02:58:45;22.80;50.00
68011;DHT22;54794;48.348;7.878;2023-09-07T03:01:12;22.80;50.10
68011;DHT22;54794;48.348;7.878;2023-09-07T03:03:40;22.80;50.10
68011;DHT22;54794;48.348;7.878;2023-09-07T03:06:11;22.70;50.10
68011;DHT22;54794;48.348;7.878;2023-09-07T03:08:40;22.70;50.10
68011;DHT22;54794;48.348;7.878;2023-09-07T03:11:07;22.70;50.10
68011;DHT22;54794;48.348;7.878;2023-09-07T03:13:35;22.60;50.10
68011;DHT22;54794;48.348;7.878;2023-09-07T03:16:03;22.60;50.20
68011;DHT22;54794;48.348;7.878;2023-09-07T03:18:31;22.60;50.20
68011;DHT22;54794;48.348;7.878;2023-09-07T03:21:01;22.60;50.20
68011;DHT22;54794;48.348;7.878;2023-09-07T03:23:29;22.60;50.30
68011;DHT22;54794;48.348;7.878;2023-09-07T03:25:59;22.60;50.30
68011;DHT22;54794;48.348;7.878;2023-09-07T03:28:26;22.60;50.20
68011;DHT22;54794;48.348;7.878;2023-09-07T03:30:54;22.60;50.30
68011;DHT22;54794;48.348;7.878;2023-09-07T03:33:23;22.60;50.10
68011;DHT22;54794;48.348;7.878;2023-09-07T03:35:50;22.60;50.20
68011;DHT22;54794;48.348;7.878;2023-09-07T03:38:18;22.50;50.20
68011;DHT22;54794;48.348;7.878;2023-09-07T03:40:45;22.50;50.30
68011;DHT22;54794;48.348;7.878;2023-09-07T03:43:12;22.50;50.40
68011;DHT22;54794;48.348;7.878;2023-09-07T03:45:39;22.50;50.50
68011;DHT22;54794;48.348;7.878;2023-09-07T03:48:06;22.40;50.30
68011;DHT22;54794;48.348;7.878;2023-09-07T03:50:33;22.40;50.50
68011;DHT22;54794;48.348;7.878;2023-09-07T03:53:00;22.30;50.50
68011;DHT22;54794;48.348;7.878;2023-09-07T03:55:27;22.20;50.60
68011;DHT22;54794;48.348;7.878;2023-09-07T03:57:54;22.20;50.50
68011;DHT22;54794;48.348;7.878;2023-09-07T04:00:21;22.10;50.70
68011;DHT22;54794;48.348;7.878;2023-09-07T04:06:52;21.90;51.10
68011;DHT22;54794;48.348;7.878;2023-09-07T04:09:19;21.80;50.90
68011;DHT22;54794;48.348;7.878;2023-09-07T04:11:45;21.80;51.00
68011;DHT22;54794;48.348;7.878;2023-09-07T04:14:15;21.70;51.20
68011;DHT22;54794;48.348;7.878;2023-09-07T04:16:52;21.70;51.40
68011;DHT22;54794;48.348;7.878;2023-09-07T04:19:58;21.60;51.20
68011;DHT22;54794;48.348;7.878;2023-09-07T04:22:38;21.60;51.40
68011;DHT22;54794;48.348;7.878;2023-09-07T04:26:21;21.50;51.70
68011;DHT22;54794;48.348;7.878;2023-09-07T04:32:22;21.50;51.90
68011;DHT22;54794;48.348;7.878;2023-09-07T04:36:42;21.50;51.90
68011;DHT22;54794;48.348;7.878;2023-09-07T04:39:59;21.50;52.40
68011;DHT22;54794;48.348;7.878;2023-09-07T04:46:51;21.50;52.30
68011;DHT22;54794;48.348;7.878;2023-09-07T04:50:13;21.50;52.50
68011;DHT22;54794;48.348;7.878;2023-09-07T04:52:58;21.40;52.40
68011;DHT22;54794;48.348;7.878;2023-09-07T04:55:42;21.40;52.10
68011;DHT22;54794;48.348;7.878;2023-09-07T04:58:40;21.40;52.80
68011;DHT22;54794;48.348;7.878;2023-09-07T05:01:50;21.40;52.40
68011;DHT22;54794;48.348;7.878;2023-09-07T05:04:59;21.30;52.40
68011;DHT22;54794;48.348;7.878;2023-09-07T05:12:01;21.60;53.00
68011;DHT22;54794;48.348;7.878;2023-09-07T05:15:30;21.30;52.90
68011;DHT22;54794;48.348;7.878;2023-09-07T05:18:32;21.20;53.00
68011;DHT22;54794;48.348;7.878;2023-09-07T05:22:02;21.20;52.80
68011;DHT22;54794;48.348;7.878;2023-09-07T05:25:01;21.20;53.00
68011;DHT22;54794;48.348;7.878;2023-09-07T05:28:10;21.10;52.90
68011;DHT22;54794;48.348;7.878;2023-09-07T05:31:23;21.10;52.80
68011;DHT22;54794;48.348;7.878;2023-09-07T05:34:39;21.10;53.10
68011;DHT22;54794;48.348;7.878;2023-09-07T05:37:40;21.10;53.30
68011;DHT22;54794;48.348;7.878;2023-09-07T05:41:16;21.00;53.40
68011;DHT22;54794;48.348;7.878;2023-09-07T05:44:42;21.00;53.40
68011;DHT22;54794;48.348;7.878;2023-09-07T05:47:39;21.00;53.40
68011;DHT22;54794;48.348;7.878;2023-09-07T05:50:35;20.90;53.50
68011;DHT22;54794;48.348;7.878;2023-09-07T05:53:56;20.90;53.30
68011;DHT22;54794;48.348;7.878;2023-09-07T05:56:47;20.90;53.70
68011;DHT22;54794;48.348;7.878;2023-09-07T06:03:14;21.00;53.70
68011;DHT22;54794;48.348;7.878;2023-09-07T06:06:18;21.00;54.00
68011;DHT22;54794;48.348;7.878;2023-09-07T06:09:17;21.00;53.70
68011;DHT22;54794;48.348;7.878;2023-09-07T06:12:53;21.00;54.00
68011;DHT22;54794;48.348;7.878;2023-09-07T06:16:07;21.00;54.30
68011;DHT22;54794;48.348;7.878;2023-09-07T06:18:46;21.10;54.20
68011;DHT22;54794;48.348;7.878;2023-09-07T06:21:13;21.10;54.40
68011;DHT22;54794;48.348;7.878;2023-09-07T06:23:40;21.10;53.90
68011;DHT22;54794;48.348;7.878;2023-09-07T06:26:07;21.10;54.00
68011;DHT22;54794;48.348;7.878;2023-09-07T06:28:34;21.10;54.10
68011;DHT22;54794;48.348;7.878;2023-09-07T06:31:01;21.20;54.20
68011;DHT22;54794;48.348;7.878;2023-09-07T06:33:28;21.20;54.20
68011;DHT22;54794;48.348;7.878;2023-09-07T06:35:55;21.30;54.20
68011;DHT22;54794;48.348;7.878;2023-09-07T06:38:23;21.30;54.30
68011;DHT22;54794;48.348;7.878;2023-09-07T06:40:50;21.40;54.40
68011;DHT22;54794;48.348;7.878;2023-09-07T06:43:17;21.40;54.60
68011;DHT22;54794;48.348;7.878;2023-09-07T06:45:44;21.50;54.60
68011;DHT22;54794;48.348;7.878;2023-09-07T06:48:11;21.50;55.00
68011;DHT22;54794;48.348;7.878;2023-09-07T06:50:39;21.60;54.60
68011;DHT22;54794;48.348;7.878;2023-09-07T06:53:06;21.60;54.60
68011;DHT22;54794;48.348;7.878;2023-09-07T06:55:33;21.70;54.70
68011;DHT22;54794;48.348;7.878;2023-09-07T06:58:00;21.80;54.70
68011;DHT22;54794;48.348;7.878;2023-09-07T07:00:28;21.80;54.70
68011;DHT22;54794;48.348;7.878;2023-09-07T07:02:55;21.90;54.80
68011;DHT22;54794;48.348;7.878;2023-09-07T07:05:24;22.00;54.90
68011;DHT22;54794;48.348;7.878;2023-09-07T07:07:55;22.00;54.90
68011;DHT22;54794;48.348;7.878;2023-09-07T07:10:22;22.10;54.90
68011;DHT22;54794;48.348;7.878;2023-09-07T07:12:53;22.20;54.90
68011;DHT22;54794;48.348;7.878;2023-09-07T07:15:25;22.30;55.30
68011;DHT22;54794;48.348;7.878;2023-09-07T07:26:23;22.60;55.80
68011;DHT22;54794;48.348;7.878;2023-09-07T07:37:58;23.00;56.00
68011;DHT22;54794;48.348;7.878;2023-09-07T07:41:18;23.20;55.70
68011;DHT22;54794;48.348;7.878;2023-09-07T07:44:39;23.40;55.30
68011;DHT22;54794;48.348;7.878;2023-09-07T07:47:54;23.50;55.60
68011;DHT22;54794;48.348;7.878;2023-09-07T07:50:56;23.60;55.30
68011;DHT22;54794;48.348;7.878;2023-09-07T08:01:21;23.90;55.60
68011;DHT22;54794;48.348;7.878;2023-09-07T08:05:08;24.10;55.20
68011;DHT22;54794;48.348;7.878;2023-09-07T08:08:51;24.30;55.50
68011;DHT22;54794;48.348;7.878;2023-09-07T08:15:10;24.60;55.10
68011;DHT22;54794;48.348;7.878;2023-09-07T08:22:47;24.80;55.30
68011;DHT22;54794;48.348;7.878;2023-09-07T08:26:42;24.90;55.30
68011;DHT22;54794;48.348;7.878;2023-09-07T08:30:19;25.10;55.40
68011;DHT22;54794;48.348;7.878;2023-09-07T08:37:05;25.20;54.90
68011;DHT22;54794;48.348;7.878;2023-09-07T08:40:22;25.30;55.00
68011;DHT22;54794;48.348;7.878;2023-09-07T08:44:10;25.40;54.80
68011;DHT22;54794;48.348;7.878;2023-09-07T08:47:29;25.30;54.90
68011;DHT22;54794;48.348;7.878;2023-09-07T08:54:31;25.70;54.90
68011;DHT22;54794;48.348;7.878;2023-09-07T08:58:30;25.80;55.60
68011;DHT22;54794;48.348;7.878;2023-09-07T09:04:50;26.00;55.00
68011;DHT22;54794;48.348;7.878;2023-09-07T09:08:01;26.10;55.30
68011;DHT22;54794;48.348;7.878;2023-09-07T09:16:06;26.40;55.10
68011;DHT22;54794;48.348;7.878;2023-09-07T09:19:33;26.60;54.90
68011;DHT22;54794;48.348;7.878;2023-09-07T09:22:49;26.70;54.80
68011;DHT22;54794;48.348;7.878;2023-09-07T09:25:43;26.70;54.80
68011;DHT22;54794;48.348;7.878;2023-09-07T09:32:50;27.00;54.60
68011;DHT22;54794;48.348;7.878;2023-09-07T09:36:06;27.10;54.50
68011;DHT22;54794;48.348;7.878;2023-09-07T09:39:09;27.30;54.60
68011;DHT22;54794;48.348;7.878;2023-09-07T09:50:46;27.60;54.20
68011;DHT22;54794;48.348;7.878;2023-09-07T10:10:46;27.90;53.40
68011;DHT22;54794;48.348;7.878;2023-09-07T10:18:18;28.10;53.60
68011;DHT22;54794;48.348;7.878;2023-09-07T10:21:30;28.20;53.40
68011;DHT22;54794;48.348;7.878;2023-09-07T10:25:20;28.20;52.90
68011;DHT22;54794;48.348;7.878;2023-09-07T10:40:33;28.50;52.70
68011;DHT22;54794;48.348;7.878;2023-09-07T10:53:15;28.50;52.70
68011;DHT22;54794;48.348;7.878;2023-09-07T10:56:04;28.60;52.50
68011;DHT22;54794;48.348;7.878;2023-09-07T10:59:45;28.70;52.60
68011;DHT22;54794;48.348;7.878;2023-09-07T11:14:48;29.10;52.30
68011;DHT22;54794;48.348;7.878;2023-09-07T11:17:45;29.20;52.20
68011;DHT22;54794;48.348;7.878;2023-09-07T11:21:09;29.30;52.20
68011;DHT22;54794;48.348;7.878;2023-09-07T11:24:19;29.40;52.80
68011;DHT22;54794;48.348;7.878;2023-09-07T11:31:49;29.60;52.00
68011;DHT22;54794;48.348;7.878;2023-09-07T11:35:00;29.70;51.70
68011;DHT22;54794;48.348;7.878;2023-09-07T11:38:35;29.80;51.50
68011;DHT22;54794;48.348;7.878;2023-09-07T11:41:40;29.90;51.70
68011;DHT22;54794;48.348;7.878;2023-09-07T11:44:47;30.00;51.40
68011;DHT22;54794;48.348;7.878;2023-09-07T11:54:58;30.40;51.20
68011;DHT22;54794;48.348;7.878;2023-09-07T11:58:04;30.50;51.00
68011;DHT22;54794;48.348;7.878;2023-09-07T12:01:25;30.70;51.10
68011;DHT22;54794;48.348;7.878;2023-09-07T12:08:23;30.90;51.00
68011;DHT22;54794;48.348;7.878;2023-09-07T12:11:59;31.10;50.50
68011;DHT22;54794;48.348;7.878;2023-09-07T12:15:26;31.20;50.00
68011;DHT22;54794;48.348;7.878;2023-09-07T12:18:58;31.40;50.10
68011;DHT22;54794;48.348;7.878;2023-09-07T12:22:16;31.50;50.00
68011;DHT22;54794;48.348;7.878;2023-09-07T12:25:40;31.60;49.60
68011;DHT22;54794;48.348;7.878;2023-09-07T12:29:56;31.80;49.70
68011;DHT22;54794;48.348;7.878;2023-09-07T12:33:14;32.00;49.50
68011;DHT22;54794;48.348;7.878;2023-09-07T12:44:43;32.50;49.20
68011;DHT22;54794;48.348;7.878;2023-09-07T12:48:11;32.70;48.70
68011;DHT22;54794;48.348;7.878;2023-09-07T12:55:18;33.10;49.00
68011;DHT22;54794;48.348;7.878;2023-09-07T13:01:59;33.40;47.90
68011;DHT22;54794;48.348;7.878;2023-09-07T13:05:33;33.50;48.00
68011;DHT22;54794;48.348;7.878;2023-09-07T13:16:41;33.90;47.50
68011;DHT22;54794;48.348;7.878;2023-09-07T13:19:37;34.00;47.10
68011;DHT22;54794;48.348;7.878;2023-09-07T13:22:44;34.10;47.30
68011;DHT22;54794;48.348;7.878;2023-09-07T13:26:11;34.10;46.70
68011;DHT22;54794;48.348;7.878;2023-09-07T13:29:46;34.20;46.50
68011;DHT22;54794;48.348;7.878;2023-09-07T13:32:55;34.40;47.20
68011;DHT22;54794;48.348;7.878;2023-09-07T13:40:37;34.60;46.20
68011;DHT22;54794;48.348;7.878;2023-09-07T13:43:59;34.40;46.30
68011;DHT22;54794;48.348;7.878;2023-09-07T13:47:15;34.70;45.60
68011;DHT22;54794;48.348;7.878;2023-09-07T13:50:05;34.70;45.40
68011;DHT22;54794;48.348;7.878;2023-09-07T13:53:42;34.80;45.90
68011;DHT22;54794;48.348;7.878;2023-09-07T13:57:38;34.80;45.60
68011;DHT22;54794;48.348;7.878;2023-09-07T14:00:55;34.80;45.20
68011;DHT22;54794;48.348;7.878;2023-09-07T14:15:45;35.00;44.40
68011;DHT22;54794;48.348;7.878;2023-09-07T14:18:59;34.90;44.60
68011;DHT22;54794;48.348;7.878;2023-09-07T14:27:34;34.90;44.10
68011;DHT22;54794;48.348;7.878;2023-09-07T14:30:42;35.00;44.50
68011;DHT22;54794;48.348;7.878;2023-09-07T14:38:10;35.00;43.90
68011;DHT22;54794;48.348;7.878;2023-09-07T14:41:55;35.00;44.30
68011;DHT22;54794;48.348;7.878;2023-09-07T14:45:14;35.00;44.00
68011;DHT22;54794;48.348;7.878;2023-09-07T14:48:32;35.00;43.40
68011;DHT22;54794;48.348;7.878;2023-09-07T14:51:59;35.10;43.60
68011;DHT22;54794;48.348;7.878;2023-09-07T14:55:44;35.10;43.50
68011;DHT22;54794;48.348;7.878;2023-09-07T14:58:56;35.10;43.80
68011;DHT22;54794;48.348;7.878;2023-09-07T15:09:31;35.10;43.40
68011;DHT22;54794;48.348;7.878;2023-09-07T15:13:25;35.00;43.20
68011;DHT22;54794;48.348;7.878;2023-09-07T15:24:49;34.80;43.00
68011;DHT22;54794;48.348;7.878;2023-09-07T15:31:51;34.80;43.40
68011;DHT22;54794;48.348;7.878;2023-09-07T15:34:48;34.80;43.20
68011;DHT22;54794;48.348;7.878;2023-09-07T15:38:35;34.70;43.00
68011;DHT22;54794;48.348;7.878;2023-09-07T15:45:39;34.80;43.00
68011;DHT22;54794;48.348;7.878;2023-09-07T15:48:54;34.80;43.00
68011;DHT22;54794;48.348;7.878;2023-09-07T15:51:56;34.80;42.90
68011;DHT22;54794;48.348;7.878;2023-09-07T15:55:48;34.80;42.90
68011;DHT22;54794;48.348;7.878;2023-09-07T15:59:28;34.70;42.90
68011;DHT22;54794;48.348;7.878;2023-09-07T16:03:22;34.80;42.90
68011;DHT22;54794;48.348;7.878;2023-09-07T16:06:53;34.70;42.90
68011;DHT22;54794;48.348;7.878;2023-09-07T16:09:53;34.70;43.00
68011;DHT22;54794;48.348;7.878;2023-09-07T16:13:03;34.60;43.10
68011;DHT22;54794;48.348;7.878;2023-09-07T16:16:06;34.60;43.10
68011;DHT22;54794;48.348;7.878;2023-09-07T16:19:53;34.50;42.80
68011;DHT22;54794;48.348;7.878;2023-09-07T16:27:18;34.50;43.10
68011;DHT22;54794;48.348;7.878;2023-09-07T16:34:50;34.30;43.20
68011;DHT22;54794;48.348;7.878;2023-09-07T16:38:01;34.20;43.20
68011;DHT22;54794;48.348;7.878;2023-09-07T16:46:08;34.00;43.10
68011;DHT22;54794;48.348;7.878;2023-09-07T16:49:51;33.90;43.20
68011;DHT22;54794;48.348;7.878;2023-09-07T16:53:27;33.70;43.30
68011;DHT22;54794;48.348;7.878;2023-09-07T17:00:32;33.40;43.30
68011;DHT22;54794;48.348;7.878;2023-09-07T17:07:32;33.10;43.60
68011;DHT22;54794;48.348;7.878;2023-09-07T17:11:16;33.00;43.70
68011;DHT22;54794;48.348;7.878;2023-09-07T17:14:53;32.80;43.90
68011;DHT22;54794;48.348;7.878;2023-09-07T17:22:23;32.40;43.80
68011;DHT22;54794;48.348;7.878;2023-09-07T17:41:33;31.80;44.70
68011;DHT22;54794;48.348;7.878;2023-09-07T17:45:19;31.60;44.80
68011;DHT22;54794;48.348;7.878;2023-09-07T17:48:44;31.50;45.00
68011;DHT22;54794;48.348;7.878;2023-09-07T17:52:23;31.40;45.10
68011;DHT22;54794;48.348;7.878;2023-09-07T18:03:02;31.00;45.60
68011;DHT22;54794;48.348;7.878;2023-09-07T18:06:16;30.90;45.60
68011;DHT22;54794;48.348;7.878;2023-09-07T18:09:53;30.80;45.60
68011;DHT22;54794;48.348;7.878;2023-09-07T18:13:12;30.60;46.10
68011;DHT22;54794;48.348;7.878;2023-09-07T18:17:46;30.50;46.10
68011;DHT22;54794;48.348;7.878;2023-09-07T18:21:27;30.30;46.00
68011;DHT22;54794;48.348;7.878;2023-09-07T18:36:07;29.80;46.60
68011;DHT22;54794;48.348;7.878;2023-09-07T18:43:50;29.70;47.20
68011;DHT22;54794;48.348;7.878;2023-09-07T18:46:56;29.60;47.40
68011;DHT22;54794;48.348;7.878;2023-09-07T18:50:58;29.50;47.60
68011;DHT22;54794;48.348;7.878;2023-09-07T18:55:06;29.40;47.60
68011;DHT22;54794;48.348;7.878;2023-09-07T19:02:49;29.10;47.70
68011;DHT22;54794;48.348;7.878;2023-09-07T19:13:57;28.80;48.00
68011;DHT22;54794;48.348;7.878;2023-09-07T19:18:06;28.60;48.30
68011;DHT22;54794;48.348;7.878;2023-09-07T19:30:20;28.30;48.30
68011;DHT22;54794;48.348;7.878;2023-09-07T19:37:42;28.10;48.90
68011;DHT22;54794;48.348;7.878;2023-09-07T19:41:22;28.00;49.20
68011;DHT22;54794;48.348;7.878;2023-09-07T19:49:11;27.90;49.10
68011;DHT22;54794;48.348;7.878;2023-09-07T19:53:23;27.80;49.50
68011;DHT22;54794;48.348;7.878;2023-09-07T19:56:52;27.70;49.40
68011;DHT22;54794;48.348;7.878;2023-09-07T20:27:10;27.10;50.20
68011;DHT22;54794;48.348;7.878;2023-09-07T20:35:20;27.00;50.50
68011;DHT22;54794;48.348;7.878;2023-09-07T20:38:33;26.90;50.80
68011;DHT22;54794;48.348;7.878;2023-09-07T20:46:47;26.80;51.10
68011;DHT22;54794;48.348;7.878;2023-09-07T20:50:02;26.80;51.30
68011;DHT22;54794;48.348;7.878;2023-09-07T20:53:51;26.60;51.10
68011;DHT22;54794;48.348;7.878;2023-09-07T20:57:25;26.80;51.60
68011;DHT22;54794;48.348;7.878;2023-09-07T21:00:58;26.60;51.60
68011;DHT22;54794;48.348;7.878;2023-09-07T21:08:13;26.50;51.60
68011;DHT22;54794;48.348;7.878;2023-09-07T21:11:28;26.40;51.40
68011;DHT22;54794;48.348;7.878;2023-09-07T21:14:27;26.30;51.80
68011;DHT22;54794;48.348;7.878;2023-09-07T21:18:17;26.30;51.00
68011;DHT22;54794;48.348;7.878;2023-09-07T21:21:27;26.20;51.90
68011;DHT22;54794;48.348;7.878;2023-09-07T21:24:53;26.20;51.90
68011;DHT22;54794;48.348;7.878;2023-09-07T21:31:11;26.10;52.20
68011;DHT22;54794;48.348;7.878;2023-09-07T21:34:29;26.10;52.10
68011;DHT22;54794;48.348;7.878;2023-09-07T21:37:55;26.00;52.50
68011;DHT22;54794;48.348;7.878;2023-09-07T21:44:34;25.80;52.40
68011;DHT22;54794;48.348;7.878;2023-09-07T21:47:58;25.90;52.80
68011;DHT22;54794;48.348;7.878;2023-09-07T21:54:43;25.70;51.90
68011;DHT22;54794;48.348;7.878;2023-09-07T22:01:39;25.60;53.20
68011;DHT22;54794;48.348;7.878;2023-09-07T22:04:56;25.60;52.60
68011;DHT22;54794;48.348;7.878;2023-09-07T22:08:30;25.40;53.10
68011;DHT22;54794;48.348;7.878;2023-09-07T22:11:40;25.60;53.40
68011;DHT22;54794;48.348;7.878;2023-09-07T22:14:34;25.40;53.30
68011;DHT22;54794;48.348;7.878;2023-09-07T22:23:39;25.30;53.60
68011;DHT22;54794;48.348;7.878;2023-09-07T22:26:51;25.30;53.30
68011;DHT22;54794;48.348;7.878;2023-09-07T22:29:57;25.30;53.90
68011;DHT22;54794;48.348;7.878;2023-09-07T22:33:02;25.30;53.50
68011;DHT22;54794;48.348;7.878;2023-09-07T22:36:59;25.30;54.10
68011;DHT22;54794;48.348;7.878;2023-09-07T22:40:19;25.30;53.80
68011;DHT22;54794;48.348;7.878;2023-09-07T22:43:26;25.20;54.10
68011;DHT22;54794;48.348;7.878;2023-09-07T22:46:43;25.20;53.80
68011;DHT22;54794;48.348;7.878;2023-09-07T22:49:47;25.40;54.40
68011;DHT22;54794;48.348;7.878;2023-09-07T22:53:04;25.10;53.70
68011;DHT22;54794;48.348;7.878;2023-09-07T22:56:05;25.10;54.30
68011;DHT22;54794;48.348;7.878;2023-09-07T22:59:34;25.00;54.30
68011;DHT22;54794;48.348;7.878;2023-09-07T23:02:27;25.00;54.40
68011;DHT22;54794;48.348;7.878;2023-09-07T23:09:14;24.90;54.50
68011;DHT22;54794;48.348;7.878;2023-09-07T23:23:13;24.80;54.80
68011;DHT22;54794;48.348;7.878;2023-09-07T23:26:20;24.80;55.00
68011;DHT22;54794;48.348;7.878;2023-09-07T23:28:55;24.70;55.20
68011;DHT22;54794;48.348;7.878;2023-09-07T23:32:02;24.70;54.90
68011;DHT22;54794;48.348;7.878;2023-09-07T23:35:01;24.70;55.40
68011;DHT22;54794;48.348;7.878;2023-09-07T23:44:39;24.60;55.00
68011;DHT22;54794;48.348;7.878;2023-09-07T23:47:51;24.60;55.10
68011;DHT22;54794;48.348;7.878;2023-09-07T23:51:25;24.60;55.00
68011;DHT22;54794;48.348;7.878;2023-09-07T23:55:07;24.70;55.60
